Time;durP1;ratioP1;P1;durP2;ratioP2;P2;SDS_P1;SDS_P2;PMS_P1;PMS_P2;Temp;Humidity;BMP_temperature;BMP_pressure;BME280_temperature;BME280_humidity;BME280_pressure;Samples;Min_cycle;Max_cycle;Signal;HPM_P1;HPM_P2
2023/12/21 11:03:48;;;;;;;22.67;2.13;;;;;;;6.20;66.54;98532.06;5072118;27;20376;-78
2023/12/21 11:06:15;;;;;;;30.40;4.35;;;;;;;6.02;66.88;98540.94;5071030;28;20146;-78
2023/12/21 11:08:44;;;;;;;24.08;3.28;;;;;;;6.08;66.03;98510.28;5050212;28;20141;-80
2023/12/21 11:11:12;;;;;;;25.88;3.65;;;;;;;6.36;65.35;98523.41;5080379;28;20139;-82
2023/12/21 11:13:41;;;;;;;21.48;2.45;;;;;;;6.32;65.41;98502.00;5073048;28;20036;-79
2023/12/21 11:16:11;;;;;;;28.23;2.20;;;;;;;6.24;65.38;98488.63;5055490;28;20047;-79
2023/12/21 11:18:37;;;;;;;18.65;3.22;;;;;;;6.30;65.05;98509.03;5070584;28;20055;-80
2023/12/21 11:21:04;;;;;;;18.33;2.47;;;;;;;5.89;66.76;98488.94;5048164;28;20033;-78
2023/12/21 11:23:32;;;;;;;25.10;2.30;;;;;;;5.71;67.43;98508.19;5068340;28;20041;-80
2023/12/21 11:25:59;;;;;;;20.58;3.47;;;;;;;6.08;66.53;98514.63;5045688;28;20056;-80
2023/12/21 11:28:32;;;;;;;34.28;2.75;;;;;;;6.07;66.22;98497.41;5062476;28;20053;-79
2023/12/21 11:30:58;;;;;;;28.20;3.95;;;;;;;6.15;65.29;98504.72;5048609;28;20036;-79
2023/12/21 11:33:31;;;;;;;20.58;2.33;;;;;;;6.43;64.57;98498.75;5050505;28;20388;-79
2023/12/21 11:35:57;;;;;;;37.88;4.22;;;;;;;6.05;65.63;98609.00;5046531;28;20654;-78
2023/12/21 11:38:37;;;;;;;4.43;0.52;;;;;;;4.00;63.52;98646.53;5049248;28;20048;-80
2023/12/21 11:41:04;;;;;;;10.13;1.65;;;;;;;3.98;63.63;98618.22;5045470;28;20032;-80
2023/12/21 11:43:30;;;;;;;11.18;0.68;;;;;;;3.74;63.64;98614.22;5047451;28;20135;-81
2023/12/21 11:46:00;;;;;;;11.38;0.88;;;;;;;3.09;64.95;98614.59;5044829;28;20075;-79
2023/12/21 11:48:28;;;;;;;18.13;1.98;;;;;;;3.12;65.21;98591.22;5047838;28;20083;-80
2023/12/21 11:51:04;;;;;;;2.17;0.52;;;;;;;3.42;64.41;98602.81;5059445;28;20025;-80
2023/12/21 11:53:30;;;;;;;8.98;1.08;;;;;;;3.00;65.98;98614.16;5060726;28;20132;-81
2023/12/21 11:55:56;;;;;;;6.63;0.70;;;;;;;3.25;65.53;98599.25;5043798;28;20071;-81
2023/12/21 11:58:26;;;;;;;10.63;2.15;;;;;;;3.06;65.83;98600.97;5048621;28;20048;-80
2023/12/21 12:01:33;;;;;;;13.48;1.63;;;;;;;2.87;66.82;98606.16;5061080;28;20064;-80
2023/12/21 12:04:12;;;;;;;11.30;1.17;;;;;;;3.14;66.53;98602.31;5067416;28;20043;-80
2023/12/21 12:06:49;;;;;;;11.02;1.17;;;;;;;2.87;66.88;98603.56;5070524;28;20043;-79
2023/12/21 12:11:51;;;;;;;13.15;0.88;;;;;;;3.15;66.14;98626.38;5001958;28;20407;-68
2023/12/21 12:14:18;;;;;;;13.32;0.90;;;;;;;2.82;66.64;98596.00;4989319;28;20398;-71
2023/12/21 12:16:43;;;;;;;8.57;1.35;;;;;;;2.98;66.08;98572.94;4971742;28;20108;-71
2023/12/21 12:19:12;;;;;;;10.15;1.10;;;;;;;3.04;65.43;98580.41;4970289;28;20812;-70
2023/12/21 12:21:37;;;;;;;14.27;1.65;;;;;;;2.97;64.83;98572.09;4957267;28;20038;-70
2023/12/21 12:24:05;;;;;;;8.05;0.85;;;;;;;2.98;64.30;98589.25;4971266;28;20121;-71
2023/12/21 12:26:34;;;;;;;9.25;0.65;;;;;;;3.41;63.74;98565.00;4978561;28;20072;-71
2023/12/21 12:29:00;;;;;;;5.65;0.88;;;;;;;3.33;64.06;98555.84;4969270;28;20038;-70
2023/12/21 12:31:26;;;;;;;14.30;2.35;;;;;;;3.06;64.54;98545.03;4972949;28;20262;-70
2023/12/21 12:33:52;;;;;;;14.60;1.58;;;;;;;3.41;63.95;98539.19;4968975;28;20046;-70
2023/12/21 12:36:20;;;;;;;14.40;1.17;;;;;;;3.63;63.87;98539.81;4972649;28;20396;-70
2023/12/21 12:38:49;;;;;;;20.40;1.70;;;;;;;3.98;62.63;98553.59;4973151;28;20042;-70
2023/12/21 12:41:20;;;;;;;12.45;1.25;;;;;;;3.95;63.42;98538.22;4973674;28;20033;-70
2023/12/21 12:43:46;;;;;;;26.27;2.53;;;;;;;3.82;63.32;98539.72;4956129;28;20061;-70
2023/12/21 12:46:13;;;;;;;29.20;2.28;;;;;;;3.91;62.33;98541.84;4967359;28;20013;-70
2023/12/21 12:48:39;;;;;;;20.33;1.70;;;;;;;3.79;62.53;98539.91;4969318;28;20504;-67
2023/12/21 12:51:05;;;;;;;23.90;2.83;;;;;;;4.10;61.86;98544.38;4960407;28;20091;-71
2023/12/21 12:53:30;;;;;;;22.30;2.55;;;;;;;4.53;60.71;98523.22;4970284;28;20536;-70
2023/12/21 12:55:56;;;;;;;24.50;2.40;;;;;;;4.45;59.86;98527.97;4968964;28;22165;-69
2023/12/21 12:58:23;;;;;;;20.00;2.75;;;;;;;4.67;59.54;98549.19;4975217;28;20053;-69
2023/12/21 13:00:50;;;;;;;10.52;1.10;;;;;;;4.68;59.41;98547.47;4971103;28;20132;-69
2023/12/21 13:03:15;;;;;;;9.63;1.58;;;;;;;4.68;59.26;98574.19;4972570;28;20050;-67
2023/12/21 13:05:41;;;;;;;15.38;1.55;;;;;;;4.71;59.72;98604.22;4980314;28;20125;-69
2023/12/21 13:08:07;;;;;;;15.82;1.30;;;;;;;3.35;58.43;98617.75;4978147;28;20266;-69
2023/12/21 13:10:32;;;;;;;17.67;1.30;;;;;;;2.90;59.60;98538.91;4973413;28;20057;-68
2023/12/21 13:12:58;;;;;;;4.88;0.47;;;;;;;3.21;59.84;98600.28;4970450;28;21589;-69
2023/12/21 13:15:23;;;;;;;2.65;0.88;;;;;;;3.36;59.79;98572.97;4973014;28;20932;-69
2023/12/21 13:17:48;;;;;;;12.90;1.60;;;;;;;3.11;59.47;98555.13;4976634;28;20030;-67
2023/12/21 13:20:14;;;;;;;9.82;1.10;;;;;;;3.00;59.53;98534.97;4969438;28;20112;-69
2023/12/21 13:22:39;;;;;;;14.38;1.77;;;;;;;3.18;58.22;98549.63;4966938;28;20140;-68
2023/12/21 13:25:05;;;;;;;8.38;0.80;;;;;;;3.28;58.07;98555.19;4969240;28;20306;-68
2023/12/21 13:27:33;;;;;;;10.68;1.20;;;;;;;3.22;57.07;98546.91;4969473;28;20034;-69
2023/12/21 13:29:59;;;;;;;10.20;0.90;;;;;;;3.23;57.02;98544.25;4967802;28;20105;-69
2023/12/21 13:32:24;;;;;;;9.85;0.85;;;;;;;3.43;57.39;98573.50;4973288;28;20035;-69
2023/12/21 13:34:51;;;;;;;13.70;1.40;;;;;;;3.85;57.28;98549.94;4970060;28;20038;-69
2023/12/21 13:37:17;;;;;;;20.15;3.13;;;;;;;3.94;58.19;98552.06;4959289;28;20038;-69
2023/12/21 13:39:48;;;;;;;19.02;1.50;;;;;;;4.21;57.48;98552.41;4971202;28;20139;-69
2023/12/21 13:42:14;;;;;;;14.03;2.83;;;;;;;3.78;57.96;98548.53;4972461;28;20029;-69
2023/12/21 13:44:40;;;;;;;11.55;2.75;;;;;;;3.79;57.35;98545.91;4973042;28;20046;-70
2023/12/21 13:47:05;;;;;;;16.70;2.08;;;;;;;4.17;56.31;98545.72;4965883;28;20240;-70
2023/12/21 13:49:31;;;;;;;17.13;1.85;;;;;;;4.32;55.90;98554.47;4977221;28;20093;-69
2023/12/21 13:51:57;;;;;;;16.52;2.45;;;;;;;4.19;56.33;98581.84;4969653;28;20564;-69
2023/12/21 13:54:23;;;;;;;14.48;2.25;;;;;;;4.45;55.62;98580.53;4962420;28;20509;-70
2023/12/21 13:56:49;;;;;;;23.42;2.95;;;;;;;4.42;55.07;98578.94;4972972;28;20450;-70
2023/12/21 13:59:14;;;;;;;20.92;2.38;;;;;;;4.33;55.76;98582.00;4976777;28;20238;-69
2023/12/21 14:01:40;;;;;;;15.45;1.75;;;;;;;4.35;55.60;98585.34;4973038;28;20034;-69
2023/12/21 14:04:06;;;;;;;19.88;1.90;;;;;;;4.38;56.07;98576.56;4971368;28;20075;-69
2023/12/21 14:06:32;;;;;;;15.02;2.50;;;;;;;4.38;56.44;98580.00;4971387;28;20041;-70
2023/12/21 14:08:58;;;;;;;25.98;3.35;;;;;;;3.88;57.34;98560.13;4975390;28;20056;-69
2023/12/21 14:11:23;;;;;;;28.73;3.40;;;;;;;4.38;55.81;98577.41;4972408;28;20033;-69
2023/12/21 14:13:49;;;;;;;20.15;3.95;;;;;;;4.41;55.31;98569.50;4975315;28;20540;-69
2023/12/21 14:16:15;;;;;;;33.08;3.33;;;;;;;4.06;55.55;98579.03;4970974;28;20041;-70
2023/12/21 14:18:40;;;;;;;23.67;2.67;;;;;;;4.56;54.81;98592.91;4970111;28;20046;-70
2023/12/21 14:21:05;;;;;;;29.95;4.10;;;;;;;4.25;54.76;98597.03;4972141;28;20328;-69
2023/12/21 14:23:31;;;;;;;25.77;3.00;;;;;;;3.95;53.83;98571.81;4969935;28;20508;-69
2023/12/21 14:25:56;;;;;;;18.58;3.33;;;;;;;4.10;53.29;98592.66;4976271;28;20503;-70
2023/12/21 14:28:23;;;;;;;21.98;2.72;;;;;;;4.50;52.81;98599.25;4967841;28;20167;-68
2023/12/21 14:30:49;;;;;;;24.38;4.57;;;;;;;4.32;52.82;98600.16;4962456;28;20401;-70
2023/12/21 14:33:14;;;;;;;20.27;2.28;;;;;;;4.56;51.68;98605.84;4969056;28;20042;-69
2023/12/21 14:35:40;;;;;;;27.75;5.07;;;;;;;4.70;51.71;98612.88;4969691;28;20042;-70
2023/12/21 14:38:05;;;;;;;35.92;4.00;;;;;;;4.13;53.47;98614.00;4964782;28;20677;-70
2023/12/21 14:40:31;;;;;;;32.35;4.78;;;;;;;4.20;53.06;98602.44;4975235;28;20018;-70
2023/12/21 14:42:57;;;;;;;19.48;3.63;;;;;;;3.97;53.01;98618.28;4968042;28;20141;-69
2023/12/21 14:45:22;;;;;;;31.13;4.53;;;;;;;4.32;52.33;98606.19;4954740;28;20050;-69
2023/12/21 14:47:47;;;;;;;24.25;4.45;;;;;;;3.86;53.39;98608.44;4976650;28;20337;-70
2023/12/21 14:50:13;;;;;;;25.52;3.95;;;;;;;3.62;54.01;98610.44;4971589;28;20137;-69
2023/12/21 14:52:39;;;;;;;25.95;3.63;;;;;;;3.77;53.44;98634.72;4967642;28;20129;-69
2023/12/21 14:55:05;;;;;;;39.53;4.60;;;;;;;3.47;53.16;98612.03;4968180;28;20428;-69
2023/12/21 14:57:31;;;;;;;50.35;4.45;;;;;;;3.38;53.66;98633.09;4970195;28;20034;-69
2023/12/21 14:59:56;;;;;;;29.98;5.93;;;;;;;3.43;52.98;98641.47;4974541;28;20143;-69
2023/12/21 15:02:22;;;;;;;32.20;5.20;;;;;;;3.25;53.15;98637.97;4983734;28;20555;-69
2023/12/21 15:04:47;;;;;;;29.88;5.38;;;;;;;3.41;52.52;98627.81;4978445;28;20544;-69
2023/12/21 15:07:13;;;;;;;27.20;5.25;;;;;;;3.40;52.57;98649.34;4973994;28;20144;-69
2023/12/21 15:09:38;;;;;;;40.15;4.70;;;;;;;3.22;52.70;98647.59;4970467;28;20544;-69
2023/12/21 15:12:04;;;;;;;28.10;5.03;;;;;;;3.49;52.23;98627.44;4970381;28;20034;-69
2023/12/21 15:14:30;;;;;;;29.25;5.30;;;;;;;3.51;52.07;98639.38;4970677;28;20048;-69
2023/12/21 15:16:57;;;;;;;31.80;5.03;;;;;;;3.65;51.79;98645.63;4971231;28;20388;-69
2023/12/21 15:19:23;;;;;;;29.17;4.32;;;;;;;3.58;52.35;98651.09;4966121;28;20034;-69
2023/12/21 15:21:49;;;;;;;26.45;4.22;;;;;;;3.18;52.33;98627.09;4974861;28;20113;-69
2023/12/21 15:24:14;;;;;;;49.95;5.65;;;;;;;3.39;52.28;98658.03;4966159;28;20415;-70
2023/12/21 15:26:40;;;;;;;39.15;5.63;;;;;;;3.50;52.39;98679.03;4968600;28;20244;-69
2023/12/21 15:29:07;;;;;;;31.48;4.82;;;;;;;2.82;57.37;98685.47;4964318;28;20041;-69
2023/12/21 15:31:33;;;;;;;18.38;2.88;;;;;;;2.67;56.94;98692.97;4971382;28;20512;-69
2023/12/21 15:33:58;;;;;;;21.52;2.88;;;;;;;2.54;55.04;98692.63;4966721;28;20038;-69
2023/12/21 15:36:24;;;;;;;28.25;3.03;;;;;;;2.73;54.81;98708.19;4966770;28;20042;-70
2023/12/21 15:38:50;;;;;;;22.55;3.10;;;;;;;2.64;54.75;98702.56;4960948;28;20308;-70
2023/12/21 15:41:19;;;;;;;28.90;4.22;;;;;;;2.35;54.78;98704.59;4964451;28;20128;-68
2023/12/21 15:43:45;;;;;;;22.02;3.70;;;;;;;2.72;54.04;98708.25;4968980;28;20397;-70
2023/12/21 15:46:10;;;;;;;24.48;4.88;;;;;;;2.63;54.48;98717.22;4963662;28;20041;-69
2023/12/21 15:48:36;;;;;;;29.23;3.95;;;;;;;2.86;53.62;98702.50;4970187;28;20061;-69
2023/12/21 15:51:01;;;;;;;31.27;3.97;;;;;;;2.95;53.30;98704.69;4973499;28;20030;-69
2023/12/21 15:53:27;;;;;;;34.55;4.53;;;;;;;2.92;53.04;98707.41;4969659;28;20049;-70
2023/12/21 15:55:52;;;;;;;35.03;5.18;;;;;;;3.14;51.96;98707.31;4970977;28;20124;-69
2023/12/21 15:58:18;;;;;;;31.65;4.95;;;;;;;3.38;51.55;98701.09;4968837;28;20339;-69
2023/12/21 16:00:44;;;;;;;34.25;5.82;;;;;;;3.08;51.55;98694.66;4972914;28;21241;-70
2023/12/21 16:03:10;;;;;;;23.83;4.00;;;;;;;3.32;50.97;98690.19;4968294;28;20348;-69
2023/12/21 16:05:35;;;;;;;28.98;5.32;;;;;;;3.18;50.88;98689.03;4973174;28;20452;-70
2023/12/21 16:08:02;;;;;;;34.78;3.58;;;;;;;3.47;50.53;98735.13;4972217;28;20105;-69
2023/12/21 16:10:27;;;;;;;41.13;5.22;;;;;;;3.38;53.65;98731.22;4977388;28;20071;-69
2023/12/21 16:12:53;;;;;;;24.35;4.50;;;;;;;2.71;55.62;98755.56;4972355;28;20554;-68
2023/12/21 16:15:18;;;;;;;22.05;3.75;;;;;;;2.76;51.59;98758.81;4972176;28;20524;-69
2023/12/21 16:17:44;;;;;;;24.15;3.40;;;;;;;2.60;50.21;98753.44;4970700;28;20092;-69
2023/12/21 16:20:12;;;;;;;21.40;2.78;;;;;;;2.79;49.49;98763.84;4968551;28;20464;-69
2023/12/21 16:22:38;;;;;;;19.40;3.30;;;;;;;2.49;50.25;98750.47;4958268;28;20059;-69
2023/12/21 16:25:04;;;;;;;24.77;3.75;;;;;;;2.75;50.81;98744.22;4967561;28;20118;-68
2023/12/21 16:27:29;;;;;;;12.95;3.58;;;;;;;2.59;50.64;98745.78;4970185;28;20037;-69
2023/12/21 16:29:54;;;;;;;15.98;3.00;;;;;;;2.56;51.10;98764.78;4970195;28;20077;-69
2023/12/21 16:32:20;;;;;;;14.75;2.08;;;;;;;2.81;50.85;98743.13;4969486;28;20165;-69
2023/12/21 16:34:46;;;;;;;11.77;2.17;;;;;;;2.87;50.95;98750.63;4976749;28;20054;-69
2023/12/21 16:37:11;;;;;;;25.73;4.03;;;;;;;2.53;51.67;98752.00;4968029;28;20485;-69
2023/12/21 16:39:37;;;;;;;27.73;3.58;;;;;;;2.66;51.63;98736.88;4970049;28;20511;-70
2023/12/21 16:42:03;;;;;;;20.17;3.33;;;;;;;3.01;50.51;98743.13;4971663;28;20558;-70
2023/12/21 16:44:29;;;;;;;22.10;5.43;;;;;;;3.41;50.06;98746.59;4966700;28;20073;-69
2023/12/21 16:46:55;;;;;;;36.03;4.40;;;;;;;2.97;50.65;98742.41;4973093;28;20092;-70
2023/12/21 16:49:20;;;;;;;39.38;5.13;;;;;;;3.64;49.88;98742.13;4967531;28;20507;-69
2023/12/21 16:51:46;;;;;;;34.80;4.25;;;;;;;3.35;50.08;98752.03;4969815;28;20251;-69
2023/12/21 16:54:12;;;;;;;24.95;3.75;;;;;;;2.77;50.39;98753.56;4974323;28;20172;-68
2023/12/21 16:56:39;;;;;;;20.98;3.63;;;;;;;2.59;51.13;98756.09;4975364;28;20061;-69
2023/12/21 16:59:04;;;;;;;27.90;3.95;;;;;;;3.20;49.48;98768.97;4963445;28;20147;-70
2023/12/21 17:01:30;;;;;;;16.40;2.65;;;;;;;2.51;50.67;98758.97;4966988;28;20084;-68
2023/12/21 17:03:55;;;;;;;30.08;2.55;;;;;;;2.49;50.75;98758.22;4972954;28;20050;-68
2023/12/21 17:06:21;;;;;;;15.48;2.72;;;;;;;2.44;50.70;98776.41;4968754;28;20261;-70
2023/12/21 17:08:47;;;;;;;14.93;1.92;;;;;;;2.54;49.58;98774.31;4975642;28;20427;-69
2023/12/21 17:11:13;;;;;;;18.30;2.58;;;;;;;2.32;50.15;98757.13;4968553;28;20034;-69
2023/12/21 17:13:39;;;;;;;16.77;3.10;;;;;;;2.35;49.79;98769.91;4967064;28;20070;-69
2023/12/21 17:16:05;;;;;;;18.15;2.17;;;;;;;2.30;50.00;98782.13;4971643;28;20145;-68
2023/12/21 17:18:31;;;;;;;25.48;3.17;;;;;;;2.33;50.85;98763.97;4965188;28;20105;-69
2023/12/21 17:20:56;;;;;;;28.63;3.60;;;;;;;2.32;50.91;98785.47;4974983;28;20033;-69
2023/12/21 17:23:22;;;;;;;22.65;2.97;;;;;;;2.66;50.60;98794.44;4964065;28;20061;-70
2023/12/21 17:25:47;;;;;;;20.25;2.95;;;;;;;2.49;50.48;98789.16;4974282;28;20132;-68
2023/12/21 17:28:14;;;;;;;27.98;3.85;;;;;;;2.33;50.03;98800.06;4965576;28;20145;-69
2023/12/21 17:30:40;;;;;;;23.55;2.92;;;;;;;2.55;51.41;98810.38;4977049;28;20037;-68
2023/12/21 17:33:06;;;;;;;13.00;2.38;;;;;;;2.07;52.53;98815.69;4970051;28;20038;-69
2023/12/21 17:35:31;;;;;;;13.27;1.90;;;;;;;2.14;51.68;98832.59;4962974;28;20026;-69
2023/12/21 17:37:56;;;;;;;21.45;4.03;;;;;;;2.37;51.85;98829.13;4987914;28;20029;-69
2023/12/21 17:40:22;;;;;;;12.90;3.33;;;;;;;1.82;52.91;98832.06;4967525;28;20041;-68
2023/12/21 17:42:47;;;;;;;16.15;3.50;;;;;;;2.13;52.36;98830.91;4968997;28;20046;-69
2023/12/21 17:45:13;;;;;;;21.95;3.85;;;;;;;1.71;53.29;98831.63;4967649;28;20054;-68
2023/12/21 17:47:39;;;;;;;21.50;2.90;;;;;;;2.29;51.76;98829.44;4972753;28;20037;-69
2023/12/21 17:50:05;;;;;;;31.52;5.20;;;;;;;2.22;52.96;98848.63;4974049;28;20057;-69
2023/12/21 17:52:32;;;;;;;27.83;3.78;;;;;;;2.58;51.49;98840.38;4975499;28;20536;-68
2023/12/21 17:54:58;;;;;;;33.03;5.72;;;;;;;2.65;51.69;98865.00;4970125;28;20045;-68
2023/12/21 17:57:23;;;;;;;22.33;4.47;;;;;;;2.67;52.90;98855.47;4965877;28;20563;-69
2023/12/21 17:59:52;;;;;;;22.35;2.90;;;;;;;2.24;55.79;98859.72;4980543;28;20638;-69
2023/12/21 18:02:19;;;;;;;14.02;3.25;;;;;;;1.51;60.21;98925.84;4967196;28;20141;-69
2023/12/21 18:04:45;;;;;;;25.90;2.78;;;;;;;0.36;64.19;98942.25;4967095;28;20082;-68
2023/12/21 18:07:11;;;;;;;23.58;3.10;;;;;;;0.53;64.65;98882.66;4972533;28;20059;-68
2023/12/21 18:09:37;;;;;;;14.52;1.33;;;;;;;0.45;64.02;98898.28;4959688;28;20408;-68
2023/12/21 18:12:03;;;;;;;20.02;1.85;;;;;;;0.64;63.49;98893.44;4971444;28;20057;-69
2023/12/21 18:14:28;;;;;;;8.27;0.88;;;;;;;0.66;62.29;98903.69;4964357;28;20053;-69
2023/12/21 18:16:54;;;;;;;19.17;1.88;;;;;;;0.61;61.82;98901.25;4967147;28;20033;-68
2023/12/21 18:19:20;;;;;;;14.25;2.28;;;;;;;0.99;60.26;98909.50;4968649;28;20305;-70
2023/12/21 18:21:47;;;;;;;16.45;2.38;;;;;;;0.89;59.72;98896.09;4970352;28;20038;-70
2023/12/21 18:24:13;;;;;;;21.63;2.95;;;;;;;1.18;58.48;98901.19;4967304;28;20547;-69
2023/12/21 18:26:39;;;;;;;20.90;3.05;;;;;;;1.21;58.28;98912.22;4959342;28;20072;-70
2023/12/21 18:29:06;;;;;;;24.40;3.05;;;;;;;1.61;57.43;98928.09;4977855;28;20042;-70
2023/12/21 18:31:38;;;;;;;17.15;3.05;;;;;;;1.02;60.35;98895.72;4966905;28;20049;-69
2023/12/21 18:34:04;;;;;;;4.07;0.43;;;;;;;0.47;61.36;98952.22;4968690;28;20045;-69
2023/12/21 18:36:30;;;;;;;7.90;1.10;;;;;;;0.50;61.33;98947.00;4967526;28;20463;-69
2023/12/21 18:38:56;;;;;;;4.72;0.90;;;;;;;0.63;60.49;98921.75;4968180;28;20050;-70
2023/12/21 18:41:21;;;;;;;11.80;0.77;;;;;;;0.79;59.70;98923.00;4967095;28;20495;-69
2023/12/21 18:43:47;;;;;;;4.57;0.35;;;;;;;0.60;59.84;98914.16;4967115;28;20046;-69
2023/12/21 18:46:12;;;;;;;10.13;0.43;;;;;;;0.71;60.47;98921.56;4971442;28;20030;-70
2023/12/21 18:48:38;;;;;;;7.90;0.65;;;;;;;0.95;59.91;98943.06;4967125;28;20041;-69
2023/12/21 18:51:04;;;;;;;5.78;0.95;;;;;;;0.73;60.35;98937.78;4976160;28;20033;-70
2023/12/21 18:53:31;;;;;;;18.52;0.82;;;;;;;0.93;60.19;98940.56;4962922;28;20041;-70
2023/12/21 18:55:56;;;;;;;15.75;2.13;;;;;;;1.01;59.90;98948.88;4969057;28;20536;-71
2023/12/21 18:58:22;;;;;;;10.23;1.30;;;;;;;1.28;59.26;98954.91;4967243;28;20049;-70
2023/12/21 19:00:47;;;;;;;19.85;1.60;;;;;;;1.11;59.28;98952.84;4968410;28;20045;-70
2023/12/21 19:03:13;;;;;;;19.20;2.28;;;;;;;1.31;59.02;98974.53;4960168;28;20615;-70
2023/12/21 19:05:39;;;;;;;15.15;2.15;;;;;;;1.42;58.62;98971.66;4979682;28;20033;-71
2023/12/21 19:08:05;;;;;;;31.55;4.95;;;;;;;1.51;58.12;98981.66;4969177;28;20041;-70
2023/12/21 19:10:30;;;;;;;19.23;2.60;;;;;;;1.67;57.42;98967.38;4966000;28;20505;-69
2023/12/21 19:12:56;;;;;;;16.35;4.10;;;;;;;1.39;57.59;98975.13;4966174;28;20034;-69
2023/12/21 19:15:21;;;;;;;21.40;2.40;;;;;;;1.51;57.33;98972.19;4966504;28;20026;-69
2023/12/21 19:17:47;;;;;;;22.50;2.08;;;;;;;1.92;56.13;98984.56;4969096;28;20591;-69
2023/12/21 19:20:12;;;;;;;13.52;1.20;;;;;;;1.84;55.94;98984.84;4971955;28;20481;-70
2023/12/21 19:22:38;;;;;;;13.23;1.48;;;;;;;1.93;55.69;98974.22;4964770;28;20590;-70
2023/12/21 19:25:04;;;;;;;15.82;2.15;;;;;;;1.65;55.68;98969.16;4969137;28;20490;-70
2023/12/21 19:27:30;;;;;;;5.93;1.20;;;;;;;1.92;55.44;98982.81;4969900;28;20046;-70
2023/12/21 19:29:56;;;;;;;14.35;2.08;;;;;;;1.91;55.98;98996.59;4971641;28;20363;-71
2023/12/21 19:32:21;;;;;;;14.57;1.30;;;;;;;1.83;55.83;98980.56;4971797;28;20400;-68
2023/12/21 19:34:46;;;;;;;9.18;2.40;;;;;;;1.70;56.33;98981.88;4972992;28;20042;-67
2023/12/21 19:37:15;;;;;;;15.50;1.92;;;;;;;2.07;54.64;98990.94;4973670;28;20050;-69
2023/12/21 19:39:41;;;;;;;19.17;3.03;;;;;;;1.73;55.32;98987.78;5016828;23;20111;-81
2023/12/21 19:42:08;;;;;;;9.90;2.15;;;;;;;1.99;54.79;98980.03;5021464;28;20037;-82
2023/12/21 19:44:34;;;;;;;22.90;3.97;;;;;;;1.85;55.13;98994.22;5017440;28;20138;-80
2023/12/21 19:47:00;;;;;;;19.00;2.58;;;;;;;2.11;54.02;98987.34;5016315;28;20677;-80
2023/12/21 19:49:26;;;;;;;23.15;3.00;;;;;;;2.41;53.88;99012.94;5013090;28;20047;-81
2023/12/21 19:51:52;;;;;;;21.10;2.45;;;;;;;2.56;53.66;99009.78;5017533;28;20806;-80
2023/12/21 19:54:21;;;;;;;15.75;2.55;;;;;;;1.87;55.30;99018.22;4994232;28;20125;-78
2023/12/21 19:56:47;;;;;;;20.63;3.15;;;;;;;1.91;55.26;99022.38;5018004;28;20030;-78
2023/12/21 19:59:18;;;;;;;17.38;2.35;;;;;;;1.73;55.62;99017.84;5016536;28;20129;-80
2023/12/21 20:01:51;;;;;;;17.73;1.98;;;;;;;1.97;54.18;99048.81;5003583;28;21103;-80
2023/12/21 20:04:17;;;;;;;12.43;0.98;;;;;;;1.91;53.54;99024.13;5003855;28;20038;-80
2023/12/21 20:06:48;;;;;;;16.50;3.15;;;;;;;1.81;53.90;99039.03;5000063;28;20477;-79
2023/12/21 20:09:14;;;;;;;12.73;1.55;;;;;;;1.70;54.28;99028.22;5011418;28;20119;-81
2023/12/21 20:11:44;;;;;;;13.18;1.60;;;;;;;2.16;53.46;99036.16;4998905;28;20570;-79
2023/12/21 20:14:10;;;;;;;16.35;2.22;;;;;;;2.03;53.76;99038.31;5013799;28;20445;-79
2023/12/21 20:16:39;;;;;;;13.48;1.63;;;;;;;1.75;54.04;99046.94;5025558;28;20038;-79
2023/12/21 20:19:05;;;;;;;15.02;1.70;;;;;;;1.87;53.39;99038.81;5000363;28;20053;-82
2023/12/21 20:21:31;;;;;;;9.60;1.75;;;;;;;1.92;52.90;99042.06;5016879;28;20642;-82
2023/12/21 20:23:57;;;;;;;15.55;2.55;;;;;;;2.23;52.95;99038.47;5015959;28;20137;-81
2023/12/21 20:26:22;;;;;;;9.00;2.10;;;;;;;2.55;52.53;99054.53;4992303;28;20120;-79
2023/12/21 20:28:48;;;;;;;16.33;2.40;;;;;;;2.10;53.67;99047.50;4995398;28;20037;-80
2023/12/21 20:31:14;;;;;;;14.68;3.22;;;;;;;2.18;53.74;99055.00;4998299;28;20042;-80
2023/12/21 20:33:40;;;;;;;18.05;2.72;;;;;;;2.61;53.29;99064.63;5002370;28;20046;-79
2023/12/21 20:36:06;;;;;;;19.20;2.50;;;;;;;2.23;54.29;99064.25;5017262;28;20071;-80
2023/12/21 20:38:31;;;;;;;14.85;2.78;;;;;;;2.34;54.01;99072.44;5011065;28;20049;-79
2023/12/21 20:40:57;;;;;;;16.15;2.78;;;;;;;2.05;54.55;99070.03;5014240;28;20093;-80
2023/12/21 20:43:23;;;;;;;19.90;2.25;;;;;;;2.21;53.63;99066.03;5015303;28;20049;-79
2023/12/21 20:45:49;;;;;;;10.15;1.80;;;;;;;2.16;53.25;99078.25;5015929;28;20242;-79
2023/12/21 20:48:15;;;;;;;24.30;2.20;;;;;;;1.99;53.60;99083.09;5000728;28;20069;-79
2023/12/21 20:50:41;;;;;;;17.58;1.75;;;;;;;1.99;52.96;99075.38;4994869;28;20456;-79
2023/12/21 20:53:06;;;;;;;10.10;2.17;;;;;;;2.04;52.34;99100.13;5011063;28;20104;-79
2023/12/21 20:55:35;;;;;;;16.65;2.33;;;;;;;2.29;52.28;99094.97;5017825;28;20048;-80
2023/12/21 20:58:03;;;;;;;13.63;1.30;;;;;;;2.27;52.60;99101.91;4999419;28;20056;-79
2023/12/21 21:00:30;;;;;;;9.23;2.47;;;;;;;2.75;51.64;99113.97;5003603;28;20040;-80
2023/12/21 21:02:57;;;;;;;21.38;2.63;;;;;;;2.51;52.71;99091.63;4999440;28;20068;-81
2023/12/21 21:05:25;;;;;;;18.38;2.55;;;;;;;2.51;53.22;99104.53;4999295;28;20064;-80
2023/12/21 21:07:53;;;;;;;24.42;3.00;;;;;;;2.18;54.18;99106.53;5002779;28;20040;-80
2023/12/21 21:10:18;;;;;;;13.50;1.70;;;;;;;2.33;53.43;99124.91;5002705;28;20048;-80
2023/12/21 21:12:44;;;;;;;13.40;2.47;;;;;;;2.28;54.14;99121.63;5014263;28;20029;-79
2023/12/21 21:15:10;;;;;;;10.95;1.80;;;;;;;1.79;54.36;99124.97;4999289;28;20076;-79
2023/12/21 21:17:36;;;;;;;14.93;1.38;;;;;;;2.23;52.81;99133.84;5012939;28;20095;-79
2023/12/21 21:20:03;;;;;;;17.30;2.08;;;;;;;2.23;52.26;99182.81;5012296;28;20046;-79
2023/12/21 21:22:28;;;;;;;3.33;0.85;;;;;;;1.52;56.28;99210.75;5020827;28;20031;-79
2023/12/21 21:24:54;;;;;;;6.72;1.05;;;;;;;0.75;59.25;99231.72;5012188;28;20112;-78
2023/12/21 21:27:22;;;;;;;6.97;1.10;;;;;;;0.13;62.20;99215.25;5013521;28;20565;-80
2023/12/21 21:29:48;;;;;;;8.40;0.50;;;;;;;-0.60;64.18;99195.44;4991787;28;20508;-78
2023/12/21 21:32:13;;;;;;;3.25;0.90;;;;;;;-0.22;62.74;99178.38;5001643;28;20037;-78
2023/12/21 21:34:39;;;;;;;3.78;0.60;;;;;;;-0.50;62.68;99179.84;5015628;28;20057;-79
2023/12/21 21:37:05;;;;;;;5.30;0.65;;;;;;;-0.53;62.79;99173.06;4997673;28;20211;-78
2023/12/21 21:39:32;;;;;;;16.38;1.08;;;;;;;-0.31;62.96;99181.13;5011752;28;20138;-77
2023/12/21 21:41:58;;;;;;;11.23;1.75;;;;;;;-0.26;62.79;99184.47;4996820;28;20136;-76
2023/12/21 21:44:28;;;;;;;19.85;1.45;;;;;;;-0.13;62.83;99179.88;5003889;28;20037;-78
2023/12/21 21:46:54;;;;;;;14.43;1.48;;;;;;;0.24;62.15;99181.59;5019620;28;20041;-78
2023/12/21 21:49:19;;;;;;;11.38;0.93;;;;;;;0.19;62.13;99186.84;5018581;28;20057;-77
2023/12/21 21:51:45;;;;;;;11.55;1.02;;;;;;;0.49;61.41;99184.38;4999756;28;20931;-78
2023/12/21 21:54:10;;;;;;;11.45;2.05;;;;;;;0.84;60.27;99190.34;5018797;28;20045;-80
2023/12/21 21:56:38;;;;;;;6.65;2.15;;;;;;;0.44;60.79;99199.09;5002429;28;20097;-79
2023/12/21 21:59:04;;;;;;;8.77;1.70;;;;;;;0.83;60.19;99198.94;5001177;28;20055;-79
2023/12/21 22:01:30;;;;;;;22.85;2.50;;;;;;;0.85;59.13;99194.59;5012004;28;20029;-78
2023/12/21 22:03:55;;;;;;;14.75;2.92;;;;;;;0.67;58.75;99208.78;4998861;28;20596;-79
2023/12/21 22:06:22;;;;;;;6.38;1.40;;;;;;;1.19;56.96;99206.53;5018200;28;20025;-78
2023/12/21 22:08:47;;;;;;;2.63;0.65;;;;;;;0.99;57.23;99220.81;5015800;28;20351;-79
2023/12/21 22:11:13;;;;;;;19.67;0.90;;;;;;;0.71;58.24;99220.69;5002573;28;20518;-79
2023/12/21 22:13:41;;;;;;;13.15;1.45;;;;;;;1.09;57.03;99214.50;5013412;28;20049;-79
2023/12/21 22:16:07;;;;;;;5.70;0.40;;;;;;;0.75;57.54;99217.16;4996097;28;20289;-78
2023/12/21 22:18:33;;;;;;;3.33;0.30;;;;;;;0.78;56.84;99216.22;5018174;28;20037;-79
2023/12/21 22:20:58;;;;;;;3.60;0.40;;;;;;;0.87;56.27;99227.09;5015275;28;20466;-79
2023/12/21 22:23:26;;;;;;;8.38;0.93;;;;;;;1.03;55.79;99224.13;5005249;28;20345;-79
2023/12/21 22:25:52;;;;;;;12.75;0.60;;;;;;;0.88;56.39;99238.22;5001913;28;20049;-79
2023/12/21 22:28:18;;;;;;;8.93;0.90;;;;;;;1.03;55.94;99237.00;5023812;28;20072;-79
2023/12/21 22:30:44;;;;;;;9.73;0.85;;;;;;;1.10;56.54;99244.53;5011380;28;20037;-78
2023/12/21 22:33:09;;;;;;;9.30;1.13;;;;;;;1.07;56.58;99236.03;5003723;28;20076;-79
2023/12/21 22:35:35;;;;;;;16.42;1.85;;;;;;;0.98;57.35;99237.13;5002772;28;20042;-80